createdAt,value
2023-02-17T00:01:28.786Z,71.59
2023-02-17T00:03:55.382Z,71.99
2023-02-17T00:06:25.292Z,72.21
2023-02-17T00:08:52.797Z,71.04
2023-02-17T00:11:19.454Z,72.05
2023-02-17T00:13:46.367Z,71.99
2023-02-17T00:16:17.761Z,72.45
2023-02-17T00:18:44.443Z,72.60
2023-02-17T00:21:19.527Z,73.01
2023-02-17T00:23:47.346Z,73.37
2023-02-17T00:26:15.062Z,73.22
2023-02-17T00:28:43.187Z,73.26
2023-02-17T00:31:15.166Z,73.31
2023-02-17T00:33:42.321Z,72.56
2023-02-17T00:36:13.304Z,73.37
2023-02-17T00:38:39.927Z,72.58
2023-02-17T00:41:06.637Z,72.25
2023-02-17T00:43:33.291Z,72.96
2023-02-17T00:46:00.643Z,72.78
2023-02-17T00:48:27.218Z,72.27
2023-02-17T00:50:53.831Z,72.18
2023-02-17T00:53:20.461Z,72.93
2023-02-17T00:55:47.149Z,73.12
2023-02-17T00:58:14.114Z,72.11
2023-02-17T01:00:40.791Z,71.38
2023-02-17T01:03:07.831Z,71.93
2023-02-17T01:05:34.664Z,72.20
2023-02-17T01:08:01.247Z,71.66
2023-02-17T01:10:27.875Z,71.96
2023-02-17T01:12:55.707Z,71.70
2023-02-17T01:15:22.312Z,71.46
2023-02-17T01:17:49.515Z,71.06
2023-02-17T01:20:16.265Z,71.29
2023-02-17T01:22:43.183Z,70.99
2023-02-17T01:25:09.839Z,71.35
2023-02-17T01:27:36.919Z,70.39
2023-02-17T01:30:04.599Z,70.97
2023-02-17T01:32:31.296Z,70.65
2023-02-17T01:34:57.827Z,71.29
2023-02-17T01:37:24.449Z,70.86
2023-02-17T01:39:51.051Z,71.31
2023-02-17T01:42:20.757Z,70.90
2023-02-17T01:45:19.721Z,71.68
2023-02-17T01:47:54.324Z,71.84
2023-02-17T01:50:24.756Z,70.99
2023-02-17T01:52:54.064Z,72.18
2023-02-17T01:55:25.300Z,72.47
2023-02-17T01:57:55.791Z,72.41
2023-02-17T02:00:26.473Z,72.45
2023-02-17T02:02:53.946Z,72.96
2023-02-17T02:05:21.903Z,72.87
2023-02-17T02:07:49.738Z,73.57
2023-02-17T02:10:18.540Z,73.04
2023-02-17T02:12:45.393Z,72.73
2023-02-17T02:15:19.788Z,73.19
2023-02-17T02:17:49.393Z,71.87
2023-02-17T02:20:43.846Z,72.39
2023-02-17T02:23:13.153Z,73.16
2023-02-17T02:26:17.106Z,72.63
2023-02-17T02:28:52.992Z,72.92
2023-02-17T02:31:21.254Z,73.13
2023-02-17T02:33:53.828Z,73.40
2023-02-17T02:36:29.865Z,73.37
2023-02-17T02:39:04.639Z,73.07
2023-02-17T02:41:36.341Z,72.94
2023-02-17T02:44:06.193Z,73.14
2023-02-17T02:46:33.398Z,74.07
2023-02-17T02:49:01.622Z,73.86
2023-02-17T02:51:32.800Z,73.95
2023-02-17T02:54:32.430Z,74.17
2023-02-17T02:57:10.221Z,73.20
2023-02-17T02:59:37.187Z,72.89
2023-02-17T03:02:27.459Z,73.16
2023-02-17T03:05:00.156Z,72.55
2023-02-17T03:07:34.022Z,73.34
2023-02-17T03:10:01.371Z,72.82
2023-02-17T03:12:28.637Z,73.01
2023-02-17T03:15:03.431Z,72.70
2023-02-17T03:17:32.461Z,73.58
2023-02-17T03:20:03.558Z,73.15
2023-02-17T03:22:36.188Z,72.77
2023-02-17T03:25:03.938Z,72.81
2023-02-17T03:27:30.724Z,72.97
2023-02-17T03:29:57.552Z,73.05
2023-02-17T03:32:24.608Z,73.03
2023-02-17T03:34:51.319Z,73.16
2023-02-17T03:37:18.058Z,73.80
2023-02-17T03:39:44.863Z,73.65
2023-02-17T03:42:11.497Z,73.73
2023-02-17T03:44:38.109Z,73.62
2023-02-17T03:47:04.761Z,73.43
2023-02-17T03:49:31.471Z,73.03
2023-02-17T03:51:59.442Z,72.31
2023-02-17T03:54:27.354Z,72.14
2023-02-17T03:56:54.019Z,72.36
2023-02-17T03:59:20.565Z,72.53
2023-02-17T04:01:47.262Z,72.00
2023-02-17T04:04:13.955Z,72.02
2023-02-17T04:06:40.566Z,72.62
2023-02-17T04:09:07.198Z,72.61
2023-02-17T04:11:33.875Z,72.99
2023-02-17T04:14:00.569Z,72.81
2023-02-17T04:16:27.183Z,73.69
2023-02-17T04:18:53.852Z,73.23
2023-02-17T04:21:20.415Z,72.89
2023-02-17T04:23:47.185Z,72.94
2023-02-17T04:26:13.838Z,72.65
2023-02-17T04:28:41.964Z,73.15
2023-02-17T04:31:09.475Z,73.36
2023-02-17T04:33:38.407Z,73.14
2023-02-17T04:36:05.609Z,73.85
2023-02-17T04:38:32.994Z,73.43
2023-02-17T04:41:00.738Z,73.69
2023-02-17T04:43:28.353Z,73.60
2023-02-17T04:45:55.391Z,74.55
2023-02-17T04:48:22.478Z,73.79
2023-02-17T04:50:49.190Z,73.88
2023-02-17T04:53:16.090Z,74.02
2023-02-17T04:55:42.827Z,73.75
2023-02-17T04:58:10.380Z,73.93
2023-02-17T05:00:37.300Z,73.85
2023-02-17T05:03:04.088Z,74.08
2023-02-17T05:05:31.024Z,73.18
2023-02-17T05:07:57.809Z,74.06
2023-02-17T05:10:24.540Z,74.14
2023-02-17T05:12:51.167Z,73.95
2023-02-17T05:15:17.849Z,73.61
2023-02-17T05:17:44.536Z,73.95
2023-02-17T05:20:11.968Z,73.85
2023-02-17T05:22:38.705Z,74.39
2023-02-17T05:25:06.190Z,74.48
2023-02-17T05:27:33.666Z,74.72
2023-02-17T05:30:00.340Z,74.23
2023-02-17T05:32:27.142Z,74.22
2023-02-17T05:34:53.926Z,74.27
2023-02-17T05:37:20.491Z,74.32
2023-02-17T05:39:47.261Z,74.22
2023-02-17T05:42:14.188Z,74.47
2023-02-17T05:44:40.935Z,74.25
2023-02-17T05:47:07.569Z,74.15
2023-02-17T05:49:34.280Z,73.75
2023-02-17T05:52:01.029Z,74.04
2023-02-17T05:54:27.699Z,74.55
2023-02-17T05:56:54.301Z,75.00
2023-02-17T05:59:20.929Z,74.91
2023-02-17T06:01:47.566Z,74.26
2023-02-17T06:04:14.194Z,74.47
2023-02-17T06:06:40.855Z,74.22
2023-02-17T06:09:07.473Z,74.08
2023-02-17T06:11:34.134Z,74.65
2023-02-17T06:14:01.076Z,74.67
2023-02-17T06:16:27.886Z,74.90
2023-02-17T06:18:54.667Z,75.01
2023-02-17T06:21:21.300Z,75.32
2023-02-17T06:23:48.008Z,74.82
2023-02-17T06:26:14.746Z,74.85
2023-02-17T06:28:41.489Z,74.30
2023-02-17T06:31:08.214Z,74.21
2023-02-17T06:33:34.919Z,74.00
2023-02-17T06:36:01.540Z,74.64
2023-02-17T06:38:28.319Z,74.49
2023-02-17T06:40:55.002Z,73.76
2023-02-17T06:43:21.622Z,74.57
2023-02-17T06:45:48.450Z,74.27
2023-02-17T06:48:15.069Z,74.48
2023-02-17T06:50:41.751Z,74.03
2023-02-17T06:53:08.435Z,74.14
2023-02-17T06:55:37.228Z,74.12
2023-02-17T06:58:03.998Z,73.42
2023-02-17T07:00:30.951Z,73.34
2023-02-17T07:02:57.654Z,73.42
2023-02-17T07:05:24.318Z,72.18
2023-02-17T07:07:53.157Z,72.76
2023-02-17T07:10:20.115Z,72.03
2023-02-17T07:12:46.861Z,71.44
2023-02-17T07:15:14.958Z,70.82
2023-02-17T07:17:41.734Z,70.29
2023-02-17T07:20:09.439Z,69.08
2023-02-17T07:22:36.185Z,67.28
2023-02-17T07:25:03.067Z,67.82
2023-02-17T07:27:29.804Z,66.18
2023-02-17T07:29:56.446Z,64.69
2023-02-17T07:32:23.264Z,64.39
2023-02-17T07:34:49.908Z,62.96
2023-02-17T07:37:16.553Z,60.80
2023-02-17T07:39:43.188Z,61.48
2023-02-17T07:42:09.987Z,59.39
2023-02-17T07:44:36.709Z,59.05
2023-02-17T07:47:03.311Z,59.42
2023-02-17T07:49:30.130Z,60.10
2023-02-17T07:51:56.803Z,60.52
2023-02-17T07:54:23.476Z,59.86
2023-02-17T07:56:50.124Z,59.08
2023-02-17T07:59:17.132Z,58.26
2023-02-17T08:01:43.869Z,57.46
2023-02-17T08:04:10.713Z,56.88
2023-02-17T08:06:40.051Z,56.63
2023-02-17T08:09:25.400Z,55.97
2023-02-17T08:12:10.665Z,54.53
2023-02-17T08:14:38.616Z,53.73
2023-02-17T08:17:06.247Z,52.74
2023-02-17T08:19:47.110Z,51.58
2023-02-17T08:22:16.463Z,49.96
2023-02-17T08:24:43.121Z,49.77
2023-02-17T08:27:09.837Z,49.05
2023-02-17T08:29:36.429Z,47.27
2023-02-17T08:32:03.415Z,47.21
2023-02-17T08:34:33.760Z,46.09
2023-02-17T08:37:05.392Z,45.64
2023-02-17T08:39:33.313Z,44.87
2023-02-17T08:42:00.203Z,44.95
2023-02-17T08:44:27.117Z,44.31
2023-02-17T08:46:53.717Z,42.76
2023-02-17T08:49:23.285Z,42.61
2023-02-17T08:51:51.059Z,42.05
2023-02-17T08:54:18.428Z,41.67
2023-02-17T08:56:45.064Z,40.43
2023-02-17T08:59:12.865Z,41.28
2023-02-17T09:01:40.749Z,40.32
2023-02-17T09:04:09.784Z,39.38
2023-02-17T09:06:45.470Z,38.77
2023-02-17T09:09:14.757Z,39.25
2023-02-17T09:11:41.519Z,37.85
2023-02-17T09:14:09.040Z,37.61
2023-02-17T09:16:36.395Z,38.16
2023-02-17T09:19:03.399Z,40.20
2023-02-17T09:21:30.013Z,40.08
2023-02-17T09:23:56.796Z,39.34
2023-02-17T09:26:23.911Z,38.78
2023-02-17T09:28:50.733Z,38.50
2023-02-17T09:31:23.435Z,38.63
2023-02-17T09:33:51.268Z,37.77
2023-02-17T09:36:44.294Z,38.64
2023-02-17T09:39:13.763Z,39.35
2023-02-17T09:41:47.731Z,39.27
2023-02-17T09:44:42.651Z,40.67
2023-02-17T09:47:20.599Z,41.12
2023-02-17T09:49:57.054Z,39.86
2023-02-17T09:52:39.775Z,40.05
2023-02-17T09:55:15.266Z,37.98
2023-02-17T09:57:55.580Z,36.98
2023-02-17T10:00:34.301Z,37.32
2023-02-17T10:03:23.388Z,36.51
2023-02-17T10:06:00.644Z,37.77
2023-02-17T10:08:33.392Z,36.67
2023-02-17T10:11:08.540Z,36.06
2023-02-17T10:13:37.320Z,36.01
2023-02-17T10:16:13.964Z,35.78
2023-02-17T10:19:00.131Z,35.94
2023-02-17T10:21:31.229Z,35.15
2023-02-17T10:23:58.113Z,35.90
2023-02-17T10:26:51.110Z,35.09
2023-02-17T10:29:29.832Z,35.59
2023-02-17T10:32:20.270Z,35.05
2023-02-17T10:35:03.046Z,33.30
2023-02-17T10:37:47.242Z,32.20
2023-02-17T10:40:21.694Z,32.79
2023-02-17T10:42:53.171Z,31.76
2023-02-17T10:45:27.901Z,31.42
2023-02-17T10:48:02.014Z,30.83
2023-02-17T10:50:29.072Z,30.36
2023-02-17T10:52:56.452Z,29.91
2023-02-17T10:55:25.970Z,28.88
2023-02-17T10:57:58.861Z,32.06
2023-02-17T11:00:26.782Z,31.71
2023-02-17T11:02:53.552Z,30.97
2023-02-17T11:05:32.679Z,29.77
2023-02-17T11:08:53.020Z,28.18
2023-02-17T11:11:25.610Z,30.67
2023-02-17T11:14:10.802Z,30.98
2023-02-17T11:16:42.455Z,29.89
2023-02-17T11:19:20.927Z,29.53
2023-02-17T11:21:47.704Z,28.83
2023-02-17T11:24:14.584Z,28.04
2023-02-17T11:26:41.291Z,27.88
2023-02-17T11:29:17.675Z,26.88
2023-02-17T11:32:14.485Z,27.01
2023-02-17T11:34:43.818Z,26.17
2023-02-17T11:37:13.412Z,28.17
2023-02-17T11:39:42.889Z,26.06
2023-02-17T11:42:21.766Z,25.94
2023-02-17T11:44:49.305Z,25.90
2023-02-17T11:47:54.446Z,25.49
2023-02-17T11:50:41.638Z,27.28
2023-02-17T11:53:23.771Z,26.13
2023-02-17T11:56:06.535Z,25.38
2023-02-17T11:58:48.184Z,26.48
2023-02-17T12:01:45.316Z,26.32
2023-02-17T12:04:24.153Z,24.99
2023-02-17T12:07:03.014Z,25.88
2023-02-17T12:09:31.740Z,25.02
2023-02-17T12:14:52.437Z,24.24
2023-02-17T12:17:25.018Z,23.95
2023-02-17T12:20:25.443Z,24.54
2023-02-17T12:23:21.296Z,24.61
2023-02-17T12:25:57.137Z,25.37
2023-02-17T12:28:32.839Z,24.79
2023-02-17T12:31:15.255Z,25.69
2023-02-17T12:33:44.985Z,26.73
2023-02-17T12:36:18.715Z,25.84
2023-02-17T12:38:53.205Z,25.77
2023-02-17T12:41:25.642Z,27.10
2023-02-17T12:43:59.758Z,25.37
2023-02-17T12:46:36.937Z,26.58
2023-02-17T12:49:11.192Z,24.92
2023-02-17T12:52:01.411Z,23.71
2023-02-17T12:54:45.136Z,23.35
2023-02-17T12:57:27.277Z,23.96
2023-02-17T12:59:54.750Z,23.76
2023-02-17T13:02:24.447Z,27.41
2023-02-17T13:04:58.477Z,29.89
2023-02-17T13:07:42.200Z,27.73
2023-02-17T13:10:28.266Z,25.81
2023-02-17T13:13:05.128Z,25.42
2023-02-17T13:15:36.406Z,26.74
2023-02-17T13:18:12.038Z,24.75
2023-02-17T13:20:57.137Z,24.24
2023-02-17T13:23:30.776Z,24.62
2023-02-17T13:26:17.772Z,25.18
2023-02-17T13:28:45.320Z,25.92
2023-02-17T13:31:22.052Z,24.93
2023-02-17T13:33:57.199Z,26.97
2023-02-17T13:36:33.018Z,27.22
2023-02-17T13:39:04.785Z,26.76
2023-02-17T13:41:49.619Z,26.40
2023-02-17T13:44:27.999Z,26.83
2023-02-17T13:47:02.532Z,27.83
2023-02-17T13:49:33.943Z,27.91
2023-02-17T13:52:18.148Z,28.40
2023-02-17T13:55:06.443Z,27.79
2023-02-17T13:57:35.935Z,27.33
2023-02-17T14:00:20.772Z,27.10
2023-02-17T14:02:50.755Z,27.64
2023-02-17T14:05:36.880Z,26.07
2023-02-17T14:08:37.876Z,25.07
2023-02-17T14:11:23.157Z,24.01
2023-02-17T14:13:51.487Z,24.91
2023-02-17T14:16:24.255Z,25.42
2023-02-17T14:19:01.460Z,24.11
2023-02-17T14:21:28.106Z,24.68
2023-02-17T14:23:57.393Z,26.46
2023-02-17T14:26:43.606Z,26.05
2023-02-17T14:29:15.255Z,25.65
2023-02-17T14:31:52.853Z,23.89
2023-02-17T14:34:35.190Z,22.65
2023-02-17T14:37:18.694Z,24.11
2023-02-17T14:39:45.216Z,23.88
2023-02-17T14:42:11.782Z,23.50
2023-02-17T14:44:39.072Z,24.79
2023-02-17T14:47:05.647Z,25.84
2023-02-17T14:49:32.593Z,25.99
2023-02-17T14:51:59.210Z,24.94
2023-02-17T14:54:30.303Z,24.30
2023-02-17T14:57:05.709Z,24.27
2023-02-17T14:59:32.797Z,23.66
2023-02-17T15:02:00.034Z,23.64
2023-02-17T15:04:26.758Z,23.36
2023-02-17T15:06:56.133Z,23.08
2023-02-17T15:09:31.877Z,23.89
2023-02-17T15:11:58.668Z,23.94
2023-02-17T15:14:25.352Z,22.91
2023-02-17T15:16:52.020Z,22.78
2023-02-17T15:19:18.751Z,22.59
2023-02-17T15:21:51.373Z,22.25
2023-02-17T15:24:27.067Z,21.60
2023-02-17T15:26:56.110Z,21.54
2023-02-17T15:29:24.560Z,22.21
2023-02-17T15:31:53.871Z,21.80
2023-02-17T15:34:24.215Z,21.56
2023-02-17T15:36:50.930Z,21.29
2023-02-17T15:39:19.952Z,21.74
2023-02-17T15:41:48.987Z,22.13
2023-02-17T15:44:33.544Z,23.50
2023-02-17T15:47:00.695Z,25.06
2023-02-17T15:49:27.361Z,24.60
2023-02-17T15:51:53.904Z,24.72
2023-02-17T15:54:20.500Z,24.45
2023-02-17T15:56:50.431Z,23.92
2023-02-17T15:59:22.697Z,24.36
2023-02-17T16:01:50.695Z,24.21
2023-02-17T16:04:17.963Z,25.31
2023-02-17T16:06:44.627Z,25.72
2023-02-17T16:09:11.398Z,25.91
2023-02-17T16:11:47.627Z,26.01
2023-02-17T16:14:35.687Z,25.90
2023-02-17T16:17:03.198Z,26.62
2023-02-17T16:19:30.082Z,27.10
2023-02-17T16:21:56.801Z,27.21
2023-02-17T16:24:23.521Z,29.75
2023-02-17T16:26:50.299Z,30.46
2023-02-17T16:29:21.845Z,30.75
2023-02-17T16:31:49.177Z,31.28
2023-02-17T16:34:23.529Z,32.04
2023-02-17T16:36:53.559Z,32.43
2023-02-17T16:39:21.011Z,33.27
2023-02-17T16:41:47.917Z,34.24
2023-02-17T16:44:16.668Z,34.86
2023-02-17T16:46:52.625Z,36.16
2023-02-17T16:49:35.924Z,36.70
2023-02-17T16:52:06.865Z,37.84
2023-02-17T16:54:35.593Z,38.62
2023-02-17T16:57:02.617Z,38.87
2023-02-17T16:59:29.779Z,39.65
2023-02-17T17:01:56.530Z,40.43
2023-02-17T17:04:23.194Z,40.58
2023-02-17T17:06:52.273Z,40.51
2023-02-17T17:09:23.048Z,41.22
2023-02-17T17:11:50.104Z,41.13
2023-02-17T17:14:17.110Z,41.45
2023-02-17T17:16:50.812Z,41.80
2023-02-17T17:19:18.258Z,42.23
2023-02-17T17:21:44.922Z,42.45
2023-02-17T17:24:11.664Z,42.42
2023-02-17T17:26:45.121Z,42.95
2023-02-17T17:29:13.164Z,42.67
2023-02-17T17:31:40.270Z,43.08
2023-02-17T17:34:07.388Z,43.22
2023-02-17T17:36:38.504Z,43.92
2023-02-17T17:39:07.493Z,43.53
2023-02-17T17:41:34.148Z,44.44
2023-02-17T17:44:00.795Z,44.55
2023-02-17T17:46:30.653Z,44.78
2023-02-17T17:49:01.358Z,44.88
2023-02-17T17:51:30.359Z,44.95
2023-02-17T17:53:57.908Z,46.00
2023-02-17T17:56:27.489Z,46.14
2023-02-17T17:58:55.169Z,46.08
2023-02-17T18:01:22.271Z,46.80
2023-02-17T18:03:49.219Z,46.81
2023-02-17T18:06:21.084Z,47.62
2023-02-17T18:08:49.080Z,47.68
2023-02-17T18:11:17.574Z,47.75
2023-02-17T18:13:46.399Z,48.17
2023-02-17T18:16:14.086Z,48.17
2023-02-17T18:18:40.993Z,48.30
2023-02-17T18:21:07.673Z,48.61
2023-02-17T18:23:34.345Z,48.99
2023-02-17T18:26:01.317Z,49.64
2023-02-17T18:28:28.250Z,49.84
2023-02-17T18:30:57.012Z,50.38
2023-02-17T18:33:23.845Z,50.53
2023-02-17T18:35:51.017Z,50.82
2023-02-17T18:38:17.887Z,51.14
2023-02-17T18:40:44.469Z,51.24
2023-02-17T18:43:11.172Z,51.09
2023-02-17T18:45:37.926Z,51.54
2023-02-17T18:48:04.622Z,51.45
2023-02-17T18:50:33.837Z,51.65
2023-02-17T18:53:00.613Z,52.21
2023-02-17T18:55:27.299Z,52.74
2023-02-17T18:57:54.172Z,52.33
2023-02-17T19:00:21.137Z,52.56
2023-02-17T19:02:48.046Z,53.00
2023-02-17T19:05:17.398Z,53.26
2023-02-17T19:07:44.025Z,53.31
2023-02-17T19:10:11.034Z,53.73
2023-02-17T19:12:37.971Z,53.90
2023-02-17T19:15:06.116Z,54.62
2023-02-17T19:17:33.111Z,54.70
2023-02-17T19:20:00.571Z,54.32
2023-02-17T19:22:27.128Z,54.79
2023-02-17T19:24:54.912Z,55.31
2023-02-17T19:27:21.600Z,55.44
2023-02-17T19:29:48.240Z,55.31
2023-02-17T19:32:14.980Z,55.86
2023-02-17T19:34:41.634Z,56.46
2023-02-17T19:37:08.362Z,55.97
2023-02-17T19:39:35.987Z,56.94
2023-02-17T19:42:03.357Z,56.64
2023-02-17T19:44:31.498Z,56.78
2023-02-17T19:46:58.435Z,56.18
2023-02-17T19:49:25.378Z,56.45
2023-02-17T19:51:53.889Z,56.83
2023-02-17T19:54:20.528Z,56.91
2023-02-17T19:56:48.916Z,56.71
2023-02-17T19:59:15.715Z,56.49
2023-02-17T20:01:43.479Z,56.43
2023-02-17T20:04:11.023Z,56.70
2023-02-17T20:06:44.786Z,57.45
2023-02-17T20:09:15.673Z,57.24
2023-02-17T20:11:44.071Z,56.73
2023-02-17T20:14:11.175Z,57.73
2023-02-17T20:16:38.603Z,58.00
2023-02-17T20:19:05.460Z,58.24
2023-02-17T20:21:35.475Z,58.19
2023-02-17T20:24:02.314Z,58.64
2023-02-17T20:26:32.147Z,58.40
2023-02-17T20:28:59.354Z,59.54
2023-02-17T20:31:26.468Z,59.38
2023-02-17T20:33:53.879Z,58.87
2023-02-17T20:36:22.151Z,59.54
2023-02-17T20:38:50.004Z,59.06
2023-02-17T20:41:19.126Z,59.20
2023-02-17T20:43:46.325Z,59.22
2023-02-17T20:46:23.891Z,59.47
2023-02-17T20:48:50.688Z,60.13
2023-02-17T20:51:17.394Z,59.52
2023-02-17T20:53:44.039Z,59.86
2023-02-17T20:56:19.479Z,60.32
2023-02-17T20:58:47.289Z,59.87
2023-02-17T21:01:15.299Z,60.59
2023-02-17T21:03:41.990Z,59.95
2023-02-17T21:06:26.984Z,60.82
2023-02-17T21:09:22.832Z,60.56
2023-02-17T21:11:50.219Z,61.37
2023-02-17T21:14:16.918Z,62.11
2023-02-17T21:16:43.799Z,61.93
2023-02-17T21:19:10.552Z,62.36
2023-02-17T21:21:37.304Z,62.43
2023-02-17T21:24:04.760Z,61.91
2023-02-17T21:26:33.177Z,60.93
2023-02-17T21:28:59.823Z,61.06
2023-02-17T21:31:28.812Z,61.16
2023-02-17T21:33:55.556Z,61.55
2023-02-17T21:36:22.200Z,61.00
2023-02-17T21:38:48.900Z,61.81
2023-02-17T21:41:22.930Z,60.89
2023-02-17T21:44:08.642Z,61.36
2023-02-17T21:46:37.231Z,61.34
2023-02-17T21:49:04.021Z,61.69
2023-02-17T21:51:30.809Z,61.66
2023-02-17T21:53:59.152Z,61.89
2023-02-17T21:56:25.795Z,62.12
2023-02-17T21:58:54.666Z,61.69
2023-02-17T22:01:22.869Z,62.79
2023-02-17T22:03:49.667Z,62.99
2023-02-17T22:06:20.381Z,62.47
2023-02-17T22:08:48.075Z,62.19
2023-02-17T22:11:20.611Z,63.14
2023-02-17T22:13:47.933Z,63.01
2023-02-17T22:16:15.346Z,62.85
2023-02-17T22:18:42.054Z,62.54
2023-02-17T22:21:11.671Z,63.11
2023-02-17T22:23:39.236Z,63.21
2023-02-17T22:26:15.934Z,63.13
2023-02-17T22:28:43.023Z,63.47
2023-02-17T22:31:12.951Z,63.89
2023-02-17T22:33:39.901Z,64.42
2023-02-17T22:36:15.618Z,64.53
2023-02-17T22:38:42.310Z,64.53
2023-02-17T22:41:14.150Z,64.80
2023-02-17T22:43:42.760Z,64.21
2023-02-17T22:46:10.801Z,64.97
2023-02-17T22:48:38.836Z,64.65
2023-02-17T22:51:10.282Z,65.03
2023-02-17T22:53:37.724Z,65.46
2023-02-17T22:56:05.611Z,65.14
2023-02-17T22:58:33.247Z,65.28
2023-02-17T23:01:09.142Z,65.85
2023-02-17T23:03:37.063Z,65.41
2023-02-17T23:06:05.355Z,64.54
2023-02-17T23:08:32.400Z,65.50
2023-02-17T23:10:59.483Z,65.72
2023-02-17T23:13:26.099Z,64.89
2023-02-17T23:15:52.735Z,65.08
2023-02-17T23:18:19.980Z,65.43
2023-02-17T23:20:52.435Z,65.13
2023-02-17T23:23:19.950Z,65.40
2023-02-17T23:25:52.756Z,65.62
2023-02-17T23:28:22.116Z,65.70
2023-02-17T23:30:48.875Z,66.40
2023-02-17T23:33:18.072Z,65.56
2023-02-17T23:35:45.930Z,65.79
2023-02-17T23:38:14.392Z,66.21
2023-02-17T23:40:42.278Z,66.67
2023-02-17T23:43:09.663Z,66.60
2023-02-17T23:45:38.513Z,66.14
2023-02-17T23:48:05.904Z,67.34
2023-02-17T23:50:33.360Z,67.93
2023-02-17T23:53:00.100Z,68.69
2023-02-17T23:55:26.978Z,68.75
2023-02-17T23:57:53.673Z,68.74
